createdAt,value
2019-05-29T00:01:30.005Z,8.30
2019-05-29T00:03:58.918Z,8.18
2019-05-29T00:06:27.784Z,8.02
2019-05-29T00:08:56.694Z,8.37
2019-05-29T00:11:25.603Z,8.05
2019-05-29T00:13:54.525Z,8.03
2019-05-29T00:16:23.412Z,7.98
2019-05-29T00:18:52.315Z,7.82
2019-05-29T00:21:21.248Z,7.85
2019-05-29T00:23:50.151Z,7.79
2019-05-29T00:26:19.064Z,7.77
2019-05-29T00:28:47.943Z,7.64
2019-05-29T00:31:18.137Z,7.59
2019-05-29T00:33:45.748Z,7.55
2019-05-29T00:36:14.657Z,7.49
2019-05-29T00:38:43.534Z,7.47
2019-05-29T00:41:12.969Z,7.46
2019-05-29T00:43:41.339Z,7.38
2019-05-29T00:46:11.331Z,7.38
2019-05-29T00:48:39.121Z,7.27
2019-05-29T00:51:08.927Z,7.19
2019-05-29T00:53:36.971Z,7.15
2019-05-29T00:56:05.911Z,7.11
2019-05-29T00:58:34.805Z,7.15
2019-05-29T01:01:03.717Z,7.10
2019-05-29T01:03:32.638Z,7.17
2019-05-29T01:06:01.543Z,7.43
2019-05-29T01:08:30.420Z,7.12
2019-05-29T01:10:59.324Z,7.12
2019-05-29T01:13:28.222Z,7.04
2019-05-29T01:15:57.133Z,7.04
2019-05-29T01:18:26.010Z,7.01
2019-05-29T01:20:54.910Z,6.92
2019-05-29T01:23:23.818Z,6.86
2019-05-29T01:25:52.704Z,6.83
2019-05-29T01:28:21.590Z,6.82
2019-05-29T01:30:51.525Z,6.73
2019-05-29T01:33:20.454Z,6.76
2019-05-29T01:35:48.293Z,6.62
2019-05-29T01:38:17.247Z,6.59
2019-05-29T01:40:46.089Z,6.49
2019-05-29T01:43:15.357Z,6.39
2019-05-29T01:45:43.871Z,6.24
2019-05-29T01:48:12.750Z,6.21
2019-05-29T01:50:41.956Z,6.20
2019-05-29T01:53:10.857Z,6.19
2019-05-29T01:55:39.756Z,6.10
2019-05-29T01:58:08.707Z,6.01
2019-05-29T02:00:37.590Z,5.94
2019-05-29T02:03:06.552Z,5.86
2019-05-29T02:05:35.410Z,5.81
2019-05-29T02:08:04.313Z,6.13
2019-05-29T02:10:33.219Z,6.02
2019-05-29T02:13:02.090Z,6.02
2019-05-29T02:15:33.803Z,5.96
2019-05-29T02:17:59.891Z,5.91
2019-05-29T02:20:28.794Z,5.91
2019-05-29T02:22:57.719Z,5.99
2019-05-29T02:25:26.617Z,6.02
2019-05-29T02:27:55.518Z,6.26
2019-05-29T02:30:27.801Z,6.04
2019-05-29T02:32:53.291Z,5.94
2019-05-29T02:35:23.036Z,5.92
2019-05-29T02:37:51.105Z,5.85
2019-05-29T02:40:21.236Z,5.77
2019-05-29T02:42:48.884Z,5.70
2019-05-29T02:45:19.448Z,5.66
2019-05-29T02:47:46.782Z,5.63
2019-05-29T02:50:15.693Z,5.65
2019-05-29T02:52:44.596Z,5.67
2019-05-29T02:55:13.481Z,5.60
2019-05-29T02:57:42.353Z,5.60
2019-05-29T03:00:11.275Z,5.54
2019-05-29T03:02:40.178Z,5.48
2019-05-29T03:05:09.059Z,5.42
2019-05-29T03:07:37.964Z,5.34
2019-05-29T03:10:06.958Z,5.60
2019-05-29T03:12:35.834Z,5.38
2019-05-29T03:17:44.964Z,5.35
2019-05-29T03:20:13.880Z,5.33
2019-05-29T03:22:42.795Z,5.31
2019-05-29T03:25:11.721Z,5.30
2019-05-29T03:27:40.591Z,5.30
2019-05-29T03:30:09.567Z,5.26
2019-05-29T03:32:46.171Z,5.21
2019-05-29T03:35:07.495Z,5.16
2019-05-29T03:37:36.375Z,5.15
2019-05-29T03:40:05.787Z,5.22
2019-05-29T03:42:34.671Z,5.32
2019-05-29T03:45:03.589Z,5.32
2019-05-29T03:47:33.190Z,5.32
2019-05-29T03:50:01.344Z,5.24
2019-05-29T03:52:30.484Z,5.25
2019-05-29T03:54:59.154Z,5.16
2019-05-29T03:57:29.697Z,5.16
2019-05-29T03:59:56.916Z,5.22
2019-05-29T04:02:26.739Z,5.25
2019-05-29T04:04:54.707Z,5.30
2019-05-29T04:07:23.597Z,5.30
2019-05-29T04:09:52.487Z,5.36
2019-05-29T04:12:21.351Z,5.37
2019-05-29T04:14:50.248Z,5.39
2019-05-29T04:17:19.167Z,5.43
2019-05-29T04:19:48.057Z,5.50
2019-05-29T04:22:16.967Z,5.52
2019-05-29T04:24:45.859Z,5.58
2019-05-29T04:27:14.764Z,5.64
2019-05-29T04:29:43.850Z,5.98
2019-05-29T04:32:12.724Z,5.85
2019-05-29T04:34:41.615Z,5.78
2019-05-29T04:37:10.475Z,5.78
2019-05-29T04:39:39.370Z,5.81
2019-05-29T04:42:08.280Z,5.85
2019-05-29T04:44:38.929Z,5.92
2019-05-29T04:47:10.956Z,6.00
2019-05-29T04:49:36.178Z,6.06
2019-05-29T04:52:03.924Z,6.15
2019-05-29T04:54:33.391Z,6.23
2019-05-29T04:57:01.695Z,6.32
2019-05-29T04:59:30.832Z,6.40
2019-05-29T05:01:59.501Z,6.52
2019-05-29T05:04:29.136Z,6.60
2019-05-29T05:06:57.263Z,6.70
2019-05-29T05:09:26.187Z,6.81
2019-05-29T05:11:55.050Z,6.87
2019-05-29T05:14:23.952Z,6.92
2019-05-29T05:16:52.818Z,7.01
2019-05-29T05:19:21.727Z,7.10
2019-05-29T05:21:50.644Z,7.16
2019-05-29T05:24:19.542Z,7.28
2019-05-29T05:26:48.416Z,7.39
2019-05-29T05:29:17.301Z,7.51
2019-05-29T05:31:46.189Z,7.62
2019-05-29T05:34:15.070Z,7.73
2019-05-29T05:36:43.969Z,7.84
2019-05-29T05:39:12.873Z,8.00
2019-05-29T05:41:41.763Z,8.13
2019-05-29T05:44:10.671Z,8.32
2019-05-29T05:46:39.546Z,8.55
2019-05-29T05:49:08.576Z,8.80
2019-05-29T05:51:42.206Z,9.12
2019-05-29T05:54:06.551Z,9.70
2019-05-29T05:56:35.697Z,10.23
2019-05-29T05:59:04.418Z,10.47
2019-05-29T06:01:33.777Z,10.88
2019-05-29T06:04:02.131Z,11.30
2019-05-29T06:06:31.981Z,11.78
2019-05-29T06:08:59.950Z,12.24
2019-05-29T06:11:28.843Z,12.73
2019-05-29T06:13:57.742Z,13.26
2019-05-29T06:16:26.622Z,13.71
2019-05-29T06:18:55.555Z,14.15
2019-05-29T06:21:24.457Z,15.63
2019-05-29T06:23:53.349Z,18.58
2019-05-29T06:26:22.247Z,20.67
2019-05-29T06:28:51.153Z,22.48
2019-05-29T06:31:20.060Z,23.23
2019-05-29T06:33:48.950Z,24.68
2019-05-29T06:36:17.870Z,25.05
2019-05-29T06:38:46.741Z,26.12
2019-05-29T06:41:15.656Z,26.51
2019-05-29T06:43:44.752Z,27.10
2019-05-29T06:46:13.439Z,27.25
2019-05-29T06:48:58.044Z,27.87
2019-05-29T06:51:11.419Z,28.35
2019-05-29T06:53:40.161Z,28.04
2019-05-29T06:56:09.241Z,28.90
2019-05-29T06:58:38.153Z,28.70
2019-05-29T07:01:07.120Z,28.72
2019-05-29T07:03:37.558Z,29.46
2019-05-29T07:06:04.973Z,29.45
2019-05-29T07:08:39.946Z,29.33
2019-05-29T07:11:02.761Z,29.73
2019-05-29T07:13:35.017Z,29.67
2019-05-29T07:16:00.577Z,30.06
2019-05-29T07:18:29.472Z,29.52
2019-05-29T07:20:58.349Z,30.43
2019-05-29T07:23:27.275Z,30.63
2019-05-29T07:25:56.170Z,29.82
2019-05-29T07:28:25.069Z,29.88
2019-05-29T07:31:02.000Z,29.93
2019-05-29T07:33:22.908Z,30.17
2019-05-29T07:35:51.810Z,29.83
2019-05-29T07:38:20.706Z,30.62
2019-05-29T07:40:50.202Z,29.82
2019-05-29T07:43:18.531Z,28.92
2019-05-29T07:45:48.219Z,30.18
2019-05-29T07:48:16.326Z,29.99
2019-05-29T07:50:46.246Z,30.83
2019-05-29T07:53:14.133Z,31.02
2019-05-29T07:55:43.025Z,31.68
2019-05-29T07:58:11.924Z,30.67
2019-05-29T08:01:02.627Z,31.04
2019-05-29T08:03:09.800Z,32.13
2019-05-29T08:05:39.208Z,32.37
2019-05-29T08:08:07.735Z,31.96
2019-05-29T08:10:36.626Z,32.07
2019-05-29T08:13:05.629Z,31.05
2019-05-29T08:15:49.159Z,32.85
2019-05-29T08:18:03.502Z,31.86
2019-05-29T08:20:32.373Z,28.98
2019-05-29T08:23:01.306Z,26.57
2019-05-29T08:25:30.195Z,24.49
2019-05-29T08:27:59.082Z,25.13
2019-05-29T08:30:27.971Z,26.62
2019-05-29T08:32:56.865Z,27.15
2019-05-29T08:35:25.768Z,27.94
2019-05-29T08:37:54.672Z,28.17
2019-05-29T08:40:23.545Z,28.88
2019-05-29T08:42:52.459Z,29.33
2019-05-29T08:45:21.372Z,30.15
2019-05-29T08:47:50.287Z,31.44
2019-05-29T08:50:19.534Z,31.13
2019-05-29T08:52:48.176Z,31.10
2019-05-29T08:55:17.030Z,31.34
2019-05-29T08:57:46.349Z,30.88
2019-05-29T09:00:14.925Z,31.32
2019-05-29T09:02:44.660Z,31.84
2019-05-29T09:05:12.731Z,32.33
2019-05-29T09:07:43.220Z,29.21
2019-05-29T09:10:10.527Z,29.16
2019-05-29T09:12:39.442Z,29.59
2019-05-29T09:15:09.324Z,30.00
2019-05-29T09:17:37.426Z,30.73
2019-05-29T09:20:06.489Z,30.67
2019-05-29T09:22:35.382Z,30.88
2019-05-29T09:25:04.972Z,30.62
2019-05-29T09:27:33.853Z,31.74
2019-05-29T09:30:02.775Z,32.32
2019-05-29T09:32:48.304Z,31.73
2019-05-29T09:35:00.557Z,30.17
2019-05-29T09:37:29.460Z,31.45
2019-05-29T09:39:58.366Z,31.07
2019-05-29T09:42:27.283Z,31.35
2019-05-29T09:44:56.173Z,31.83
2019-05-29T09:47:26.382Z,31.55
2019-05-29T09:49:54.023Z,31.98
2019-05-29T09:52:22.937Z,30.98
2019-05-29T09:54:53.038Z,30.03
2019-05-29T09:57:20.752Z,29.66
2019-05-29T09:59:49.644Z,30.10
2019-05-29T10:02:18.555Z,29.67
2019-05-29T10:04:47.425Z,30.52
2019-05-29T10:07:16.304Z,29.97
2019-05-29T10:09:45.208Z,30.89
2019-05-29T10:12:14.091Z,31.21
2019-05-29T10:14:43.007Z,31.21
2019-05-29T10:17:13.129Z,30.96
2019-05-29T10:19:40.791Z,30.67
2019-05-29T10:22:09.705Z,29.47
2019-05-29T10:24:38.593Z,30.48
2019-05-29T10:27:07.567Z,30.70
2019-05-29T10:29:36.491Z,29.18
2019-05-29T10:32:05.426Z,29.12
2019-05-29T10:34:34.304Z,29.35
2019-05-29T10:37:03.242Z,29.68
2019-05-29T10:39:32.149Z,30.07
2019-05-29T10:42:01.028Z,29.78
2019-05-29T10:44:29.921Z,30.11
2019-05-29T10:46:58.791Z,30.29
2019-05-29T10:49:27.774Z,29.18
2019-05-29T10:52:13.120Z,28.49
2019-05-29T10:54:25.493Z,28.49
2019-05-29T10:56:55.028Z,28.80
2019-05-29T10:59:23.311Z,29.48
2019-05-29T11:01:53.703Z,31.30
2019-05-29T11:04:21.155Z,28.57
2019-05-29T11:06:50.285Z,27.46
2019-05-29T11:09:18.964Z,27.35
2019-05-29T11:11:48.390Z,28.51
2019-05-29T11:14:16.767Z,28.38
2019-05-29T11:16:46.914Z,28.14
2019-05-29T11:19:14.588Z,28.13
2019-05-29T11:21:43.493Z,28.51
2019-05-29T11:24:12.418Z,28.52
2019-05-29T11:26:41.292Z,25.68
2019-05-29T11:29:10.223Z,26.55
2019-05-29T11:31:39.119Z,27.60
2019-05-29T11:34:08.079Z,28.08
2019-05-29T11:36:36.971Z,28.12
2019-05-29T11:39:07.363Z,27.22
2019-05-29T11:41:36.290Z,28.69
2019-05-29T11:44:05.299Z,29.26
2019-05-29T11:46:34.735Z,27.54
2019-05-29T11:49:03.788Z,28.84
2019-05-29T11:51:32.589Z,27.18
2019-05-29T11:54:02.436Z,27.91
2019-05-29T11:56:30.421Z,26.32
2019-05-29T11:58:59.467Z,24.97
2019-05-29T12:01:28.195Z,25.28
2019-05-29T12:04:18.688Z,25.04
2019-05-29T12:06:26.022Z,23.95
2019-05-29T12:08:55.785Z,24.42
2019-05-29T12:11:23.847Z,24.63
2019-05-29T12:13:54.189Z,24.36
2019-05-29T12:16:21.664Z,24.01
2019-05-29T12:18:51.518Z,23.98
2019-05-29T12:21:19.480Z,24.04
2019-05-29T12:23:48.391Z,23.81
2019-05-29T12:26:22.752Z,24.03
2019-05-29T12:28:46.215Z,22.73
2019-05-29T12:31:15.080Z,22.84
2019-05-29T12:33:44.044Z,22.48
2019-05-29T12:36:12.902Z,22.39
2019-05-29T12:38:41.819Z,22.74
2019-05-29T12:41:10.733Z,22.53
2019-05-29T12:43:39.630Z,22.31
2019-05-29T12:46:08.730Z,22.34
2019-05-29T12:48:37.625Z,22.85
2019-05-29T12:51:06.876Z,22.85
2019-05-29T12:53:35.794Z,23.01
2019-05-29T12:56:04.830Z,22.58
2019-05-29T12:58:33.730Z,22.06
2019-05-29T13:01:03.054Z,22.27
2019-05-29T13:03:31.534Z,22.54
2019-05-29T13:06:00.493Z,22.47
2019-05-29T13:08:29.331Z,22.98
2019-05-29T13:10:58.460Z,22.84
2019-05-29T13:13:27.351Z,23.00
2019-05-29T13:15:56.707Z,22.95
2019-05-29T13:18:25.149Z,23.04
2019-05-29T13:20:54.763Z,22.89
2019-05-29T13:23:22.983Z,22.88
2019-05-29T13:25:51.870Z,22.67
2019-05-29T13:28:20.776Z,22.55
2019-05-29T13:30:49.657Z,22.88
2019-05-29T13:33:18.573Z,22.74
2019-05-29T13:35:47.445Z,22.51
2019-05-29T13:38:16.368Z,22.13
2019-05-29T13:40:45.296Z,22.07
2019-05-29T13:43:15.729Z,21.64
2019-05-29T13:45:43.080Z,21.92
2019-05-29T13:48:11.992Z,22.19
2019-05-29T13:50:40.884Z,22.11
2019-05-29T13:53:09.816Z,22.17
2019-05-29T13:55:38.700Z,22.00
2019-05-29T13:58:07.912Z,22.08
2019-05-29T14:00:36.638Z,21.79
2019-05-29T14:03:07.023Z,22.21
2019-05-29T14:05:34.649Z,22.39
2019-05-29T14:08:04.772Z,22.59
2019-05-29T14:10:32.460Z,22.49
2019-05-29T14:13:01.350Z,22.29
2019-05-29T14:15:30.250Z,21.93
2019-05-29T14:18:00.565Z,21.55
2019-05-29T14:20:28.056Z,21.04
2019-05-29T14:22:56.953Z,21.27
2019-05-29T14:25:25.882Z,21.33
2019-05-29T14:27:54.838Z,21.41
2019-05-29T14:30:23.682Z,21.80
2019-05-29T14:32:52.581Z,21.58
2019-05-29T14:35:21.491Z,21.34
2019-05-29T14:37:50.375Z,21.70
2019-05-29T14:40:19.300Z,21.98
2019-05-29T14:42:48.215Z,21.54
2019-05-29T14:45:17.129Z,21.70
2019-05-29T14:47:46.018Z,21.97
2019-05-29T14:50:14.939Z,22.05
2019-05-29T14:52:43.848Z,21.95
2019-05-29T14:55:16.121Z,21.53
2019-05-29T14:57:41.583Z,21.88
2019-05-29T15:00:20.613Z,22.03
2019-05-29T15:02:39.474Z,22.00
2019-05-29T15:05:09.600Z,22.45
2019-05-29T15:07:37.324Z,22.19
2019-05-29T15:10:13.078Z,22.25
2019-05-29T15:12:35.255Z,22.04
2019-05-29T15:15:04.749Z,22.21
2019-05-29T15:17:33.156Z,22.09
2019-05-29T15:20:02.336Z,22.02
2019-05-29T15:22:31.001Z,21.90
2019-05-29T15:25:10.628Z,21.50
2019-05-29T15:27:28.774Z,21.42
2019-05-29T15:29:57.686Z,21.85
2019-05-29T15:32:26.659Z,21.45
2019-05-29T15:34:55.528Z,21.13
2019-05-29T15:37:24.443Z,21.62
2019-05-29T15:39:53.355Z,21.23
2019-05-29T15:42:22.252Z,21.38
2019-05-29T15:44:51.126Z,21.13
2019-05-29T15:47:20.026Z,21.34
2019-05-29T15:49:48.898Z,21.14
2019-05-29T15:52:17.806Z,21.42
2019-05-29T15:54:46.726Z,21.23
2019-05-29T15:57:15.608Z,21.24
2019-05-29T15:59:45.021Z,21.13
2019-05-29T16:02:13.897Z,21.33
2019-05-29T16:04:42.779Z,21.22
2019-05-29T16:07:11.923Z,21.30
2019-05-29T16:09:40.561Z,21.43
2019-05-29T16:12:10.498Z,21.60
2019-05-29T16:14:38.471Z,21.10
2019-05-29T16:17:08.921Z,21.21
2019-05-29T16:19:36.468Z,21.39
2019-05-29T16:22:05.419Z,21.44
2019-05-29T16:24:34.337Z,21.05
2019-05-29T16:27:08.886Z,21.11
2019-05-29T16:29:32.135Z,21.12
2019-05-29T16:32:01.021Z,21.06
2019-05-29T16:34:29.915Z,20.94
2019-05-29T16:36:58.786Z,21.12
2019-05-29T16:39:27.696Z,21.00
2019-05-29T16:41:56.579Z,20.92
2019-05-29T16:44:29.318Z,20.80
2019-05-29T16:46:54.432Z,20.81
2019-05-29T16:49:23.325Z,20.75
2019-05-29T16:51:52.213Z,20.72
2019-05-29T16:54:21.138Z,20.62
2019-05-29T16:56:50.012Z,20.50
2019-05-29T16:59:19.255Z,20.57
2019-05-29T17:01:47.829Z,20.26
2019-05-29T17:04:17.681Z,20.34
2019-05-29T17:06:45.634Z,20.12
2019-05-29T17:09:14.596Z,20.04
2019-05-29T17:11:43.443Z,20.18
2019-05-29T17:14:12.323Z,20.21
2019-05-29T17:16:41.226Z,20.14
2019-05-29T17:19:10.237Z,20.10
2019-05-29T17:21:39.160Z,20.08
2019-05-29T17:24:08.068Z,19.90
2019-05-29T17:26:36.958Z,19.81
2019-05-29T17:29:05.946Z,19.91
2019-05-29T17:31:34.787Z,20.02
2019-05-29T17:34:03.721Z,20.03
2019-05-29T17:36:32.625Z,19.87
2019-05-29T17:39:01.538Z,20.03
2019-05-29T17:41:30.457Z,20.31
2019-05-29T17:43:59.338Z,20.19
2019-05-29T17:46:28.239Z,20.53
2019-05-29T17:48:57.129Z,20.73
2019-05-29T17:51:26.153Z,20.83
2019-05-29T17:53:55.143Z,20.76
2019-05-29T17:56:35.578Z,20.45
2019-05-29T17:58:52.936Z,20.42
2019-05-29T18:01:22.255Z,20.31
2019-05-29T18:03:50.748Z,20.47
2019-05-29T18:06:20.244Z,20.17
2019-05-29T18:08:48.543Z,19.90
2019-05-29T18:11:17.422Z,19.67
2019-05-29T18:13:46.322Z,19.24
2019-05-29T18:16:15.207Z,19.43
2019-05-29T18:18:44.115Z,19.50
2019-05-29T18:21:12.997Z,19.23
2019-05-29T18:23:41.923Z,19.37
2019-05-29T18:26:10.891Z,19.38
2019-05-29T18:28:39.780Z,19.36
2019-05-29T18:31:08.766Z,19.34
2019-05-29T18:33:37.664Z,19.41
2019-05-29T18:36:06.715Z,19.45
2019-05-29T18:38:35.625Z,19.43
2019-05-29T18:41:04.683Z,19.40
2019-05-29T18:43:33.517Z,19.59
2019-05-29T18:46:02.463Z,19.42
2019-05-29T18:48:32.413Z,19.37
2019-05-29T18:51:00.285Z,19.31
2019-05-29T18:53:29.200Z,19.45
2019-05-29T18:55:58.097Z,19.23
2019-05-29T18:58:28.115Z,19.13
2019-05-29T19:00:55.886Z,19.11
2019-05-29T19:03:25.394Z,19.06
2019-05-29T19:05:53.650Z,19.05
2019-05-29T19:08:23.599Z,19.00
2019-05-29T19:10:51.437Z,18.95
2019-05-29T19:13:21.684Z,18.92
2019-05-29T19:15:49.235Z,18.83
2019-05-29T19:18:18.143Z,18.76
2019-05-29T19:20:47.018Z,18.72
2019-05-29T19:23:15.948Z,18.72
2019-05-29T19:25:44.863Z,18.60
2019-05-29T19:28:13.742Z,18.52
2019-05-29T19:30:42.647Z,18.42
2019-05-29T19:33:11.577Z,18.34
2019-05-29T19:35:40.459Z,18.27
2019-05-29T19:38:09.444Z,18.14
2019-05-29T19:40:38.334Z,18.07
2019-05-29T19:43:07.495Z,18.05
2019-05-29T19:45:36.389Z,17.96
2019-05-29T19:48:05.353Z,17.94
2019-05-29T19:50:35.025Z,17.99
2019-05-29T19:53:03.160Z,17.70
2019-05-29T19:55:35.441Z,17.67
2019-05-29T19:58:00.969Z,17.92
2019-05-29T20:00:30.085Z,17.73
2019-05-29T20:02:58.756Z,17.62
2019-05-29T20:05:28.610Z,17.61
2019-05-29T20:07:56.554Z,17.60
2019-05-29T20:10:25.463Z,17.56
2019-05-29T20:12:54.395Z,17.52
2019-05-29T20:15:23.286Z,17.52
2019-05-29T20:17:52.210Z,17.77
2019-05-29T20:20:21.087Z,17.64
2019-05-29T20:22:49.992Z,17.66
2019-05-29T20:25:18.898Z,17.63
2019-05-29T20:27:47.804Z,17.57
2019-05-29T20:30:16.820Z,17.57
2019-05-29T20:32:45.787Z,17.56
2019-05-29T20:35:14.738Z,17.53
2019-05-29T20:37:43.644Z,17.49
2019-05-29T20:40:12.558Z,17.48
2019-05-29T20:42:42.538Z,17.45
2019-05-29T20:45:10.390Z,17.48
2019-05-29T20:47:39.967Z,17.43
2019-05-29T20:50:08.227Z,17.51
2019-05-29T20:52:37.396Z,17.51
2019-05-29T20:55:06.078Z,17.54
2019-05-29T20:57:35.882Z,17.53
2019-05-29T21:00:04.104Z,17.52
2019-05-29T21:02:33.972Z,17.58
2019-05-29T21:05:01.877Z,17.62
2019-05-29T21:07:30.802Z,17.63
2019-05-29T21:09:59.703Z,17.49
2019-05-29T21:12:28.640Z,17.86
2019-05-29T21:14:57.533Z,17.94
2019-05-29T21:17:26.422Z,17.60
2019-05-29T21:19:55.326Z,17.52
2019-05-29T21:22:24.234Z,17.56
2019-05-29T21:25:02.371Z,17.46
2019-05-29T21:27:22.088Z,17.40
2019-05-29T21:29:51.013Z,17.30
2019-05-29T21:32:19.930Z,17.37
2019-05-29T21:34:48.829Z,17.25
2019-05-29T21:37:17.742Z,17.29
2019-05-29T21:39:46.786Z,17.33
2019-05-29T21:42:15.581Z,17.34
2019-05-29T21:44:44.917Z,17.31
2019-05-29T21:47:13.396Z,17.68
2019-05-29T21:49:43.249Z,17.87
2019-05-29T21:52:11.330Z,17.60
2019-05-29T21:54:41.364Z,17.47
2019-05-29T21:57:09.067Z,17.82
2019-05-29T21:59:37.960Z,17.55
2019-05-29T22:02:06.912Z,17.47
2019-05-29T22:04:35.853Z,17.45
2019-05-29T22:07:04.764Z,17.77
2019-05-29T22:09:33.636Z,17.50
2019-05-29T22:12:02.532Z,17.41
2019-05-29T22:14:31.458Z,17.39
2019-05-29T22:17:01.238Z,17.36
2019-05-29T22:19:29.231Z,17.31
2019-05-29T22:21:59.164Z,17.22
2019-05-29T22:24:27.073Z,17.22
2019-05-29T22:26:57.247Z,17.23
2019-05-29T22:29:24.908Z,17.23
2019-05-29T22:31:53.824Z,17.17
2019-05-29T22:34:22.732Z,17.18
2019-05-29T22:36:51.650Z,17.15
2019-05-29T22:39:20.587Z,17.14
2019-05-29T22:41:49.519Z,17.14
2019-05-29T22:44:18.425Z,17.47
2019-05-29T22:46:47.358Z,17.21
2019-05-29T22:49:16.300Z,17.09
2019-05-29T22:51:45.223Z,17.09
2019-05-29T22:54:14.105Z,17.10
2019-05-29T22:56:43.016Z,17.05
2019-05-29T22:59:12.028Z,16.94
2019-05-29T23:01:40.942Z,16.91
2019-05-29T23:04:09.920Z,16.95
2019-05-29T23:06:38.836Z,16.93
2019-05-29T23:09:07.834Z,17.23
2019-05-29T23:11:36.726Z,16.93
2019-05-29T23:14:05.633Z,16.90
2019-05-29T23:16:34.557Z,16.88
2019-05-29T23:19:03.449Z,16.84
2019-05-29T23:21:32.379Z,16.80
2019-05-29T23:24:01.752Z,16.77
2019-05-29T23:26:30.195Z,16.79
2019-05-29T23:28:59.326Z,16.77
2019-05-29T23:31:28.038Z,16.80
2019-05-29T23:33:56.991Z,16.80
2019-05-29T23:36:25.886Z,16.73
2019-05-29T23:38:55.101Z,16.70
2019-05-29T23:41:23.686Z,16.62
2019-05-29T23:43:53.357Z,17.00
2019-05-29T23:46:21.501Z,16.80
2019-05-29T23:48:50.420Z,16.71
2019-05-29T23:51:19.353Z,16.64
2019-05-29T23:53:48.284Z,16.64
2019-05-29T23:56:17.156Z,17.01
2019-05-29T23:58:46.085Z,16.60
